sensor_id;sensor_type;location;lat;lon;timestamp;temperature;humidity
7588;DHT22;3835;48.850;8.938;2023-08-01T00:01:52;16.90;99.90
7588;DHT22;3835;48.850;8.938;2023-08-01T00:04:19;16.90;99.90
7588;DHT22;3835;48.850;8.938;2023-08-01T00:06:46;16.90;99.90
7588;DHT22;3835;48.850;8.938;2023-08-01T00:09:12;16.80;99.90
7588;DHT22;3835;48.850;8.938;2023-08-01T00:11:39;16.90;99.90
7588;DHT22;3835;48.850;8.938;2023-08-01T00:14:06;16.90;99.90
7588;DHT22;3835;48.850;8.938;2023-08-01T00:16:34;16.90;99.90
7588;DHT22;3835;48.850;8.938;2023-08-01T00:19:01;16.90;99.90
7588;DHT22;3835;48.850;8.938;2023-08-01T00:21:27;16.90;99.90
7588;DHT22;3835;48.850;8.938;2023-08-01T00:23:57;16.90;99.90
7588;DHT22;3835;48.850;8.938;2023-08-01T00:26:24;16.90;99.90
7588;DHT22;3835;48.850;8.938;2023-08-01T00:28:50;16.90;99.90
7588;DHT22;3835;48.850;8.938;2023-08-01T00:31:17;16.80;99.90
7588;DHT22;3835;48.850;8.938;2023-08-01T00:33:45;16.80;99.90
7588;DHT22;3835;48.850;8.938;2023-08-01T00:36:12;16.80;99.90
7588;DHT22;3835;48.850;8.938;2023-08-01T00:38:39;16.70;99.90
7588;DHT22;3835;48.850;8.938;2023-08-01T00:41:07;16.70;99.90
7588;DHT22;3835;48.850;8.938;2023-08-01T00:43:34;16.70;99.90
7588;DHT22;3835;48.850;8.938;2023-08-01T00:46:03;16.70;99.90
7588;DHT22;3835;48.850;8.938;2023-08-01T00:48:31;16.70;99.90
7588;DHT22;3835;48.850;8.938;2023-08-01T00:51:02;16.70;99.90
7588;DHT22;3835;48.850;8.938;2023-08-01T00:53:30;16.70;99.90
7588;DHT22;3835;48.850;8.938;2023-08-01T00:55:57;16.70;99.90
7588;DHT22;3835;48.850;8.938;2023-08-01T00:58:24;16.80;99.90
7588;DHT22;3835;48.850;8.938;2023-08-01T01:00:51;16.80;99.90
7588;DHT22;3835;48.850;8.938;2023-08-01T01:03:18;16.80;99.90
7588;DHT22;3835;48.850;8.938;2023-08-01T01:05:53;16.90;99.90
7588;DHT22;3835;48.850;8.938;2023-08-01T01:08:21;16.90;99.90
7588;DHT22;3835;48.850;8.938;2023-08-01T01:10:48;16.90;99.90
7588;DHT22;3835;48.850;8.938;2023-08-01T01:13:15;16.90;99.90
7588;DHT22;3835;48.850;8.938;2023-08-01T01:15:42;17.00;99.90
7588;DHT22;3835;48.850;8.938;2023-08-01T01:18:08;17.00;99.90
7588;DHT22;3835;48.850;8.938;2023-08-01T01:20:37;17.00;99.90
7588;DHT22;3835;48.850;8.938;2023-08-01T01:23:04;17.00;99.90
7588;DHT22;3835;48.850;8.938;2023-08-01T01:25:32;16.90;99.90
7588;DHT22;3835;48.850;8.938;2023-08-01T01:27:59;16.80;99.90
7588;DHT22;3835;48.850;8.938;2023-08-01T01:30:30;16.80;99.90
7588;DHT22;3835;48.850;8.938;2023-08-01T01:32:59;16.70;99.90
7588;DHT22;3835;48.850;8.938;2023-08-01T01:35:26;16.70;99.90
7588;DHT22;3835;48.850;8.938;2023-08-01T01:37:54;16.60;99.90
7588;DHT22;3835;48.850;8.938;2023-08-01T01:40:24;16.50;99.90
7588;DHT22;3835;48.850;8.938;2023-08-01T01:42:50;16.50;99.90
7588;DHT22;3835;48.850;8.938;2023-08-01T01:45:17;16.40;99.90
7588;DHT22;3835;48.850;8.938;2023-08-01T01:47:44;16.40;99.90
7588;DHT22;3835;48.850;8.938;2023-08-01T01:50:11;16.30;99.90
7588;DHT22;3835;48.850;8.938;2023-08-01T01:52:37;16.30;99.90
7588;DHT22;3835;48.850;8.938;2023-08-01T01:55:06;16.30;99.90
7588;DHT22;3835;48.850;8.938;2023-08-01T01:57:33;16.30;99.90
7588;DHT22;3835;48.850;8.938;2023-08-01T02:00:01;16.30;99.90
7588;DHT22;3835;48.850;8.938;2023-08-01T02:02:28;16.50;99.90
7588;DHT22;3835;48.850;8.938;2023-08-01T02:04:55;16.30;99.90
7588;DHT22;3835;48.850;8.938;2023-08-01T02:07:22;16.30;99.90
7588;DHT22;3835;48.850;8.938;2023-08-01T02:09:48;16.30;99.90
7588;DHT22;3835;48.850;8.938;2023-08-01T02:12:16;16.30;99.90
7588;DHT22;3835;48.850;8.938;2023-08-01T02:14:43;16.30;99.90
7588;DHT22;3835;48.850;8.938;2023-08-01T02:17:10;16.30;99.90
7588;DHT22;3835;48.850;8.938;2023-08-01T02:19:37;16.30;99.90
7588;DHT22;3835;48.850;8.938;2023-08-01T02:22:04;16.30;99.90
7588;DHT22;3835;48.850;8.938;2023-08-01T02:24:31;16.30;99.90
7588;DHT22;3835;48.850;8.938;2023-08-01T02:26:58;16.30;99.90
7588;DHT22;3835;48.850;8.938;2023-08-01T02:29:26;16.30;99.90
7588;DHT22;3835;48.850;8.938;2023-08-01T02:31:52;16.30;99.90
7588;DHT22;3835;48.850;8.938;2023-08-01T02:34:20;16.30;99.90
7588;DHT22;3835;48.850;8.938;2023-08-01T02:36:47;16.30;99.90
7588;DHT22;3835;48.850;8.938;2023-08-01T02:39:13;16.20;99.90
7588;DHT22;3835;48.850;8.938;2023-08-01T02:41:40;16.20;99.90
7588;DHT22;3835;48.850;8.938;2023-08-01T02:44:07;16.20;99.90
7588;DHT22;3835;48.850;8.938;2023-08-01T02:46:35;16.20;99.90
7588;DHT22;3835;48.850;8.938;2023-08-01T02:49:02;16.20;99.90
7588;DHT22;3835;48.850;8.938;2023-08-01T02:51:29;16.20;99.90
7588;DHT22;3835;48.850;8.938;2023-08-01T02:53:55;16.20;99.90
7588;DHT22;3835;48.850;8.938;2023-08-01T02:56:22;16.20;99.90
7588;DHT22;3835;48.850;8.938;2023-08-01T02:58:49;16.30;99.90
7588;DHT22;3835;48.850;8.938;2023-08-01T03:01:17;16.30;99.90
7588;DHT22;3835;48.850;8.938;2023-08-01T03:03:45;16.30;99.90
7588;DHT22;3835;48.850;8.938;2023-08-01T03:06:12;16.30;99.90
7588;DHT22;3835;48.850;8.938;2023-08-01T03:08:39;16.30;99.90
7588;DHT22;3835;48.850;8.938;2023-08-01T03:11:06;16.30;99.90
7588;DHT22;3835;48.850;8.938;2023-08-01T03:13:33;16.30;99.90
7588;DHT22;3835;48.850;8.938;2023-08-01T03:16:00;16.30;99.90
7588;DHT22;3835;48.850;8.938;2023-08-01T03:18:26;16.30;99.90
7588;DHT22;3835;48.850;8.938;2023-08-01T03:20:54;16.30;99.90
7588;DHT22;3835;48.850;8.938;2023-08-01T03:23:21;16.30;99.90
7588;DHT22;3835;48.850;8.938;2023-08-01T03:25:48;16.40;99.90
7588;DHT22;3835;48.850;8.938;2023-08-01T03:28:15;16.40;99.90
7588;DHT22;3835;48.850;8.938;2023-08-01T03:30:41;16.40;99.90
7588;DHT22;3835;48.850;8.938;2023-08-01T03:33:08;16.40;99.90
7588;DHT22;3835;48.850;8.938;2023-08-01T03:35:35;16.40;99.90
7588;DHT22;3835;48.850;8.938;2023-08-01T03:38:03;16.40;99.90
7588;DHT22;3835;48.850;8.938;2023-08-01T03:40:30;16.40;99.90
7588;DHT22;3835;48.850;8.938;2023-08-01T03:42:57;16.40;99.90
7588;DHT22;3835;48.850;8.938;2023-08-01T03:45:24;16.40;99.90
7588;DHT22;3835;48.850;8.938;2023-08-01T03:47:51;16.40;99.90
7588;DHT22;3835;48.850;8.938;2023-08-01T03:50:17;16.40;99.90
7588;DHT22;3835;48.850;8.938;2023-08-01T03:52:44;16.40;99.90
7588;DHT22;3835;48.850;8.938;2023-08-01T03:55:13;16.40;99.90
7588;DHT22;3835;48.850;8.938;2023-08-01T03:57:40;16.40;99.90
7588;DHT22;3835;48.850;8.938;2023-08-01T04:00:09;16.40;99.90
7588;DHT22;3835;48.850;8.938;2023-08-01T04:02:39;16.40;99.90
7588;DHT22;3835;48.850;8.938;2023-08-01T04:05:06;16.40;99.90
7588;DHT22;3835;48.850;8.938;2023-08-01T04:07:34;16.50;99.90
7588;DHT22;3835;48.850;8.938;2023-08-01T04:10:01;16.50;99.90
7588;DHT22;3835;48.850;8.938;2023-08-01T04:12:30;16.60;99.90
7588;DHT22;3835;48.850;8.938;2023-08-01T04:14:57;16.60;99.90
7588;DHT22;3835;48.850;8.938;2023-08-01T04:17:24;16.60;99.90
7588;DHT22;3835;48.850;8.938;2023-08-01T04:19:51;16.60;99.90
7588;DHT22;3835;48.850;8.938;2023-08-01T04:22:17;16.60;99.90
7588;DHT22;3835;48.850;8.938;2023-08-01T04:24:44;16.60;99.90
7588;DHT22;3835;48.850;8.938;2023-08-01T04:27:11;16.60;99.90
7588;DHT22;3835;48.850;8.938;2023-08-01T04:29:39;16.60;99.90
7588;DHT22;3835;48.850;8.938;2023-08-01T04:32:07;16.60;99.90
7588;DHT22;3835;48.850;8.938;2023-08-01T04:34:33;16.70;99.90
7588;DHT22;3835;48.850;8.938;2023-08-01T04:37:01;16.70;99.90
7588;DHT22;3835;48.850;8.938;2023-08-01T04:39:28;16.60;99.90
7588;DHT22;3835;48.850;8.938;2023-08-01T04:41:55;16.60;99.90
7588;DHT22;3835;48.850;8.938;2023-08-01T04:44:21;16.60;99.90
7588;DHT22;3835;48.850;8.938;2023-08-01T04:46:50;16.60;99.90
7588;DHT22;3835;48.850;8.938;2023-08-01T04:49:16;16.70;99.90
7588;DHT22;3835;48.850;8.938;2023-08-01T04:51:44;16.70;99.90
7588;DHT22;3835;48.850;8.938;2023-08-01T04:54:11;16.80;99.90
7588;DHT22;3835;48.850;8.938;2023-08-01T04:56:38;16.80;99.90
7588;DHT22;3835;48.850;8.938;2023-08-01T04:59:04;16.80;99.90
7588;DHT22;3835;48.850;8.938;2023-08-01T05:01:31;16.90;99.90
7588;DHT22;3835;48.850;8.938;2023-08-01T05:03:59;16.80;99.90
7588;DHT22;3835;48.850;8.938;2023-08-01T05:06:26;16.80;99.90
7588;DHT22;3835;48.850;8.938;2023-08-01T05:08:54;16.80;99.90
7588;DHT22;3835;48.850;8.938;2023-08-01T05:11:21;16.80;99.90
7588;DHT22;3835;48.850;8.938;2023-08-01T05:13:49;16.80;99.90
7588;DHT22;3835;48.850;8.938;2023-08-01T05:16:15;16.80;99.90
7588;DHT22;3835;48.850;8.938;2023-08-01T05:18:42;16.80;99.90
7588;DHT22;3835;48.850;8.938;2023-08-01T05:21:10;16.70;99.90
7588;DHT22;3835;48.850;8.938;2023-08-01T05:23:37;16.70;99.90
7588;DHT22;3835;48.850;8.938;2023-08-01T05:26:04;16.70;99.90
7588;DHT22;3835;48.850;8.938;2023-08-01T05:28:30;16.70;99.90
7588;DHT22;3835;48.850;8.938;2023-08-01T05:30:57;16.70;99.90
7588;DHT22;3835;48.850;8.938;2023-08-01T05:33:24;16.80;99.90
7588;DHT22;3835;48.850;8.938;2023-08-01T05:35:51;16.80;99.90
7588;DHT22;3835;48.850;8.938;2023-08-01T05:38:19;16.90;99.90
7588;DHT22;3835;48.850;8.938;2023-08-01T05:40:46;17.00;99.90
7588;DHT22;3835;48.850;8.938;2023-08-01T05:43:12;17.10;99.90
7588;DHT22;3835;48.850;8.938;2023-08-01T05:45:39;17.10;99.90
7588;DHT22;3835;48.850;8.938;2023-08-01T05:48:06;17.20;99.90
7588;DHT22;3835;48.850;8.938;2023-08-01T05:50:33;17.30;99.90
7588;DHT22;3835;48.850;8.938;2023-08-01T05:52:59;17.30;99.90
7588;DHT22;3835;48.850;8.938;2023-08-01T05:55:28;17.30;99.90
7588;DHT22;3835;48.850;8.938;2023-08-01T05:57:54;17.30;99.90
7588;DHT22;3835;48.850;8.938;2023-08-01T06:00:21;17.30;99.90
7588;DHT22;3835;48.850;8.938;2023-08-01T06:02:48;17.30;99.90
7588;DHT22;3835;48.850;8.938;2023-08-01T06:05:15;17.30;99.90
7588;DHT22;3835;48.850;8.938;2023-08-01T06:07:42;17.30;99.90
7588;DHT22;3835;48.850;8.938;2023-08-01T06:10:09;17.30;99.90
7588;DHT22;3835;48.850;8.938;2023-08-01T06:12:37;17.30;99.90
7588;DHT22;3835;48.850;8.938;2023-08-01T06:15:05;17.30;99.90
7588;DHT22;3835;48.850;8.938;2023-08-01T06:17:32;17.20;99.90
7588;DHT22;3835;48.850;8.938;2023-08-01T06:19:58;17.20;99.90
7588;DHT22;3835;48.850;8.938;2023-08-01T06:22:25;17.10;99.90
7588;DHT22;3835;48.850;8.938;2023-08-01T06:24:52;17.00;99.90
7588;DHT22;3835;48.850;8.938;2023-08-01T06:27:19;16.80;99.90
7588;DHT22;3835;48.850;8.938;2023-08-01T06:29:47;16.60;99.90
7588;DHT22;3835;48.850;8.938;2023-08-01T06:32:13;16.50;99.90
7588;DHT22;3835;48.850;8.938;2023-08-01T06:34:40;16.40;99.90
7588;DHT22;3835;48.850;8.938;2023-08-01T06:37:07;16.30;99.90
7588;DHT22;3835;48.850;8.938;2023-08-01T06:39:35;16.30;99.90
7588;DHT22;3835;48.850;8.938;2023-08-01T06:42:02;16.20;99.90
7588;DHT22;3835;48.850;8.938;2023-08-01T06:44:29;16.20;99.90
7588;DHT22;3835;48.850;8.938;2023-08-01T06:46:57;16.10;99.90
7588;DHT22;3835;48.850;8.938;2023-08-01T06:49:24;16.00;99.90
7588;DHT22;3835;48.850;8.938;2023-08-01T06:51:50;16.00;99.90
7588;DHT22;3835;48.850;8.938;2023-08-01T06:54:17;16.10;99.90
7588;DHT22;3835;48.850;8.938;2023-08-01T06:56:44;16.10;99.90
7588;DHT22;3835;48.850;8.938;2023-08-01T06:59:13;16.20;99.90
7588;DHT22;3835;48.850;8.938;2023-08-01T07:01:40;16.30;99.90
7588;DHT22;3835;48.850;8.938;2023-08-01T07:04:10;16.40;99.90
7588;DHT22;3835;48.850;8.938;2023-08-01T07:06:37;16.40;99.90
7588;DHT22;3835;48.850;8.938;2023-08-01T07:09:03;16.40;99.90
7588;DHT22;3835;48.850;8.938;2023-08-01T07:11:30;16.40;99.90
7588;DHT22;3835;48.850;8.938;2023-08-01T07:13:57;16.30;99.90
7588;DHT22;3835;48.850;8.938;2023-08-01T07:16:24;16.30;99.90
7588;DHT22;3835;48.850;8.938;2023-08-01T07:18:51;16.30;99.90
7588;DHT22;3835;48.850;8.938;2023-08-01T07:21:19;16.30;99.90
7588;DHT22;3835;48.850;8.938;2023-08-01T07:23:46;16.20;99.90
7588;DHT22;3835;48.850;8.938;2023-08-01T07:26:14;16.10;99.90
7588;DHT22;3835;48.850;8.938;2023-08-01T07:28:40;16.00;99.90
7588;DHT22;3835;48.850;8.938;2023-08-01T07:31:07;15.90;99.90
7588;DHT22;3835;48.850;8.938;2023-08-01T07:33:34;15.90;99.90
7588;DHT22;3835;48.850;8.938;2023-08-01T07:36:02;15.90;99.90
7588;DHT22;3835;48.850;8.938;2023-08-01T07:38:30;16.00;99.90
7588;DHT22;3835;48.850;8.938;2023-08-01T07:41:02;16.10;99.90
7588;DHT22;3835;48.850;8.938;2023-08-01T07:43:29;16.20;99.90
7588;DHT22;3835;48.850;8.938;2023-08-01T07:45:56;16.20;99.90
7588;DHT22;3835;48.850;8.938;2023-08-01T07:48:23;16.30;99.90
7588;DHT22;3835;48.850;8.938;2023-08-01T07:50:50;16.50;99.90
7588;DHT22;3835;48.850;8.938;2023-08-01T07:53:17;16.60;99.90
7588;DHT22;3835;48.850;8.938;2023-08-01T07:55:45;16.70;99.90
7588;DHT22;3835;48.850;8.938;2023-08-01T07:58:12;16.90;99.90
7588;DHT22;3835;48.850;8.938;2023-08-01T08:00:39;17.00;99.90
7588;DHT22;3835;48.850;8.938;2023-08-01T08:03:05;16.90;99.90
7588;DHT22;3835;48.850;8.938;2023-08-01T08:05:33;16.90;99.90
7588;DHT22;3835;48.850;8.938;2023-08-01T08:08:04;16.90;99.90
7588;DHT22;3835;48.850;8.938;2023-08-01T08:10:31;16.90;99.90
7588;DHT22;3835;48.850;8.938;2023-08-01T08:12:59;16.90;99.90
7588;DHT22;3835;48.850;8.938;2023-08-01T08:15:26;16.90;99.90
7588;DHT22;3835;48.850;8.938;2023-08-01T08:17:53;17.00;99.90
7588;DHT22;3835;48.850;8.938;2023-08-01T08:20:19;17.00;99.90
7588;DHT22;3835;48.850;8.938;2023-08-01T08:22:46;17.10;99.90
7588;DHT22;3835;48.850;8.938;2023-08-01T08:25:13;17.10;99.90
7588;DHT22;3835;48.850;8.938;2023-08-01T08:27:40;17.20;99.90
7588;DHT22;3835;48.850;8.938;2023-08-01T08:30:09;17.40;99.90
7588;DHT22;3835;48.850;8.938;2023-08-01T08:32:36;17.70;99.90
7588;DHT22;3835;48.850;8.938;2023-08-01T08:35:03;18.10;99.90
7588;DHT22;3835;48.850;8.938;2023-08-01T08:37:30;18.30;99.90
7588;DHT22;3835;48.850;8.938;2023-08-01T08:39:57;18.30;99.90
7588;DHT22;3835;48.850;8.938;2023-08-01T08:42:23;18.30;99.90
7588;DHT22;3835;48.850;8.938;2023-08-01T08:44:54;18.40;99.90
7588;DHT22;3835;48.850;8.938;2023-08-01T08:47:25;18.70;99.90
7588;DHT22;3835;48.850;8.938;2023-08-01T08:49:52;19.30;99.90
7588;DHT22;3835;48.850;8.938;2023-08-01T08:52:21;19.50;99.90
7588;DHT22;3835;48.850;8.938;2023-08-01T08:54:48;19.80;99.90
7588;DHT22;3835;48.850;8.938;2023-08-01T08:57:16;19.90;99.90
7588;DHT22;3835;48.850;8.938;2023-08-01T08:59:43;19.60;99.90
7588;DHT22;3835;48.850;8.938;2023-08-01T09:02:11;19.10;99.90
7588;DHT22;3835;48.850;8.938;2023-08-01T09:04:40;18.50;99.90
7588;DHT22;3835;48.850;8.938;2023-08-01T09:07:09;18.20;99.90
7588;DHT22;3835;48.850;8.938;2023-08-01T09:09:36;18.10;99.90
7588;DHT22;3835;48.850;8.938;2023-08-01T09:12:04;18.00;99.90
7588;DHT22;3835;48.850;8.938;2023-08-01T09:14:31;18.10;99.90
7588;DHT22;3835;48.850;8.938;2023-08-01T09:17:06;18.10;99.90
7588;DHT22;3835;48.850;8.938;2023-08-01T09:19:33;18.10;99.90
7588;DHT22;3835;48.850;8.938;2023-08-01T09:22:01;18.10;99.90
7588;DHT22;3835;48.850;8.938;2023-08-01T09:24:28;18.10;99.90
7588;DHT22;3835;48.850;8.938;2023-08-01T09:27:03;18.20;99.90
7588;DHT22;3835;48.850;8.938;2023-08-01T09:29:30;18.40;99.90
7588;DHT22;3835;48.850;8.938;2023-08-01T09:31:58;18.50;99.90
7588;DHT22;3835;48.850;8.938;2023-08-01T09:34:26;18.70;99.90
7588;DHT22;3835;48.850;8.938;2023-08-01T09:36:58;18.90;99.90
7588;DHT22;3835;48.850;8.938;2023-08-01T09:39:27;18.90;99.90
7588;DHT22;3835;48.850;8.938;2023-08-01T09:41:58;18.90;99.90
7588;DHT22;3835;48.850;8.938;2023-08-01T09:44:26;18.80;99.90
7588;DHT22;3835;48.850;8.938;2023-08-01T09:46:57;18.90;99.90
7588;DHT22;3835;48.850;8.938;2023-08-01T09:49:24;19.10;99.90
7588;DHT22;3835;48.850;8.938;2023-08-01T09:51:51;19.30;99.90
7588;DHT22;3835;48.850;8.938;2023-08-01T09:54:18;19.50;99.90
7588;DHT22;3835;48.850;8.938;2023-08-01T09:56:48;19.70;99.90
7588;DHT22;3835;48.850;8.938;2023-08-01T09:59:19;19.50;99.90
7588;DHT22;3835;48.850;8.938;2023-08-01T10:01:47;19.60;99.90
7588;DHT22;3835;48.850;8.938;2023-08-01T10:04:16;19.40;99.90
7588;DHT22;3835;48.850;8.938;2023-08-01T10:06:46;19.10;99.90
7588;DHT22;3835;48.850;8.938;2023-08-01T10:09:14;18.80;99.90
7588;DHT22;3835;48.850;8.938;2023-08-01T10:11:42;18.90;99.90
7588;DHT22;3835;48.850;8.938;2023-08-01T10:14:11;18.70;99.90
7588;DHT22;3835;48.850;8.938;2023-08-01T10:16:38;18.50;99.90
7588;DHT22;3835;48.850;8.938;2023-08-01T10:19:09;18.20;99.90
7588;DHT22;3835;48.850;8.938;2023-08-01T10:21:37;18.10;99.90
7588;DHT22;3835;48.850;8.938;2023-08-01T10:24:06;18.30;99.90
7588;DHT22;3835;48.850;8.938;2023-08-01T10:26:33;18.50;99.90
7588;DHT22;3835;48.850;8.938;2023-08-01T10:29:00;18.70;99.90
7588;DHT22;3835;48.850;8.938;2023-08-01T10:31:29;18.90;99.90
7588;DHT22;3835;48.850;8.938;2023-08-01T10:34:04;19.10;99.90
7588;DHT22;3835;48.850;8.938;2023-08-01T10:36:31;19.70;99.90
7588;DHT22;3835;48.850;8.938;2023-08-01T10:39:00;20.00;99.90
7588;DHT22;3835;48.850;8.938;2023-08-01T10:41:31;19.80;99.90
7588;DHT22;3835;48.850;8.938;2023-08-01T10:44:05;19.50;99.90
7588;DHT22;3835;48.850;8.938;2023-08-01T10:46:47;19.10;99.90
7588;DHT22;3835;48.850;8.938;2023-08-01T10:49:14;19.10;99.90
7588;DHT22;3835;48.850;8.938;2023-08-01T10:51:41;19.20;99.90
7588;DHT22;3835;48.850;8.938;2023-08-01T10:54:18;19.10;99.90
7588;DHT22;3835;48.850;8.938;2023-08-01T10:56:45;19.20;99.90
7588;DHT22;3835;48.850;8.938;2023-08-01T10:59:13;19.60;99.90
7588;DHT22;3835;48.850;8.938;2023-08-01T11:01:45;19.90;99.90
7588;DHT22;3835;48.850;8.938;2023-08-01T11:04:16;20.40;99.90
7588;DHT22;3835;48.850;8.938;2023-08-01T11:06:48;20.50;99.90
7588;DHT22;3835;48.850;8.938;2023-08-01T11:09:19;20.10;99.90
7588;DHT22;3835;48.850;8.938;2023-08-01T11:11:54;20.10;99.90
7588;DHT22;3835;48.850;8.938;2023-08-01T11:14:22;19.90;99.90
7588;DHT22;3835;48.850;8.938;2023-08-01T11:16:51;20.00;99.90
7588;DHT22;3835;48.850;8.938;2023-08-01T11:19:22;20.00;99.90
7588;DHT22;3835;48.850;8.938;2023-08-01T11:21:49;20.20;99.90
7588;DHT22;3835;48.850;8.938;2023-08-01T11:24:18;20.10;99.90
7588;DHT22;3835;48.850;8.938;2023-08-01T11:26:46;19.90;99.90
7588;DHT22;3835;48.850;8.938;2023-08-01T11:29:14;19.80;99.90
7588;DHT22;3835;48.850;8.938;2023-08-01T11:31:53;19.70;99.90
7588;DHT22;3835;48.850;8.938;2023-08-01T11:34:20;19.80;99.90
7588;DHT22;3835;48.850;8.938;2023-08-01T11:36:47;19.90;99.90
7588;DHT22;3835;48.850;8.938;2023-08-01T11:39:14;20.10;99.90
7588;DHT22;3835;48.850;8.938;2023-08-01T11:41:42;20.20;99.90
7588;DHT22;3835;48.850;8.938;2023-08-01T11:44:09;19.80;99.90
7588;DHT22;3835;48.850;8.938;2023-08-01T11:46:37;20.00;99.90
7588;DHT22;3835;48.850;8.938;2023-08-01T11:49:06;20.10;99.90
7588;DHT22;3835;48.850;8.938;2023-08-01T11:51:39;20.20;99.90
7588;DHT22;3835;48.850;8.938;2023-08-01T11:54:06;20.10;99.90
7588;DHT22;3835;48.850;8.938;2023-08-01T11:56:35;20.00;99.90
7588;DHT22;3835;48.850;8.938;2023-08-01T11:59:08;19.90;99.90
7588;DHT22;3835;48.850;8.938;2023-08-01T12:01:38;19.80;99.90
7588;DHT22;3835;48.850;8.938;2023-08-01T12:04:06;19.80;99.90
7588;DHT22;3835;48.850;8.938;2023-08-01T12:06:33;19.90;99.90
7588;DHT22;3835;48.850;8.938;2023-08-01T12:09:07;20.20;99.90
7588;DHT22;3835;48.850;8.938;2023-08-01T12:11:34;20.50;99.90
7588;DHT22;3835;48.850;8.938;2023-08-01T12:14:01;20.40;99.90
7588;DHT22;3835;48.850;8.938;2023-08-01T12:16:28;20.40;99.90
7588;DHT22;3835;48.850;8.938;2023-08-01T12:18:56;20.60;99.90
7588;DHT22;3835;48.850;8.938;2023-08-01T12:21:24;20.70;99.90
7588;DHT22;3835;48.850;8.938;2023-08-01T12:23:51;20.70;99.90
7588;DHT22;3835;48.850;8.938;2023-08-01T12:26:17;20.70;99.90
7588;DHT22;3835;48.850;8.938;2023-08-01T12:28:44;20.80;99.90
7588;DHT22;3835;48.850;8.938;2023-08-01T12:31:15;20.50;99.90
7588;DHT22;3835;48.850;8.938;2023-08-01T12:33:42;20.00;99.90
7588;DHT22;3835;48.850;8.938;2023-08-01T12:36:09;19.90;99.90
7588;DHT22;3835;48.850;8.938;2023-08-01T12:38:37;19.90;99.90
7588;DHT22;3835;48.850;8.938;2023-08-01T12:41:04;20.10;99.90
7588;DHT22;3835;48.850;8.938;2023-08-01T12:43:31;20.30;99.90
7588;DHT22;3835;48.850;8.938;2023-08-01T12:45:58;20.40;99.90
7588;DHT22;3835;48.850;8.938;2023-08-01T12:48:25;20.70;99.90
7588;DHT22;3835;48.850;8.938;2023-08-01T12:50:52;20.80;99.90
7588;DHT22;3835;48.850;8.938;2023-08-01T12:53:20;20.80;99.90
7588;DHT22;3835;48.850;8.938;2023-08-01T12:55:49;21.00;99.90
7588;DHT22;3835;48.850;8.938;2023-08-01T12:58:16;20.50;99.90
7588;DHT22;3835;48.850;8.938;2023-08-01T13:00:44;20.50;99.90
7588;DHT22;3835;48.850;8.938;2023-08-01T13:03:11;20.50;99.90
7588;DHT22;3835;48.850;8.938;2023-08-01T13:05:40;20.80;99.90
7588;DHT22;3835;48.850;8.938;2023-08-01T13:08:08;20.90;99.90
7588;DHT22;3835;48.850;8.938;2023-08-01T13:10:36;20.80;99.90
7588;DHT22;3835;48.850;8.938;2023-08-01T13:13:05;20.90;99.90
7588;DHT22;3835;48.850;8.938;2023-08-01T13:15:32;21.10;99.90
7588;DHT22;3835;48.850;8.938;2023-08-01T13:17:58;21.40;99.90
7588;DHT22;3835;48.850;8.938;2023-08-01T13:20:26;21.70;99.90
7588;DHT22;3835;48.850;8.938;2023-08-01T13:22:53;21.70;99.90
7588;DHT22;3835;48.850;8.938;2023-08-01T13:25:19;21.90;99.90
7588;DHT22;3835;48.850;8.938;2023-08-01T13:27:46;21.60;99.90
7588;DHT22;3835;48.850;8.938;2023-08-01T13:30:14;21.60;99.90
7588;DHT22;3835;48.850;8.938;2023-08-01T13:32:43;21.20;99.90
7588;DHT22;3835;48.850;8.938;2023-08-01T13:35:10;21.10;99.90
7588;DHT22;3835;48.850;8.938;2023-08-01T13:37:37;21.00;99.90
7588;DHT22;3835;48.850;8.938;2023-08-01T13:40:05;21.20;99.90
7588;DHT22;3835;48.850;8.938;2023-08-01T13:42:32;20.80;99.90
7588;DHT22;3835;48.850;8.938;2023-08-01T13:44:59;21.10;99.90
7588;DHT22;3835;48.850;8.938;2023-08-01T13:47:27;21.50;99.90
7588;DHT22;3835;48.850;8.938;2023-08-01T13:49:54;21.90;99.90
7588;DHT22;3835;48.850;8.938;2023-08-01T13:52:20;22.10;99.90
7588;DHT22;3835;48.850;8.938;2023-08-01T13:54:47;21.80;99.90
7588;DHT22;3835;48.850;8.938;2023-08-01T13:57:14;21.60;99.90
7588;DHT22;3835;48.850;8.938;2023-08-01T13:59:41;21.30;99.90
7588;DHT22;3835;48.850;8.938;2023-08-01T14:02:07;21.20;99.90
7588;DHT22;3835;48.850;8.938;2023-08-01T14:04:35;21.30;99.90
7588;DHT22;3835;48.850;8.938;2023-08-01T14:07:03;21.40;99.90
7588;DHT22;3835;48.850;8.938;2023-08-01T14:09:29;21.50;99.90
7588;DHT22;3835;48.850;8.938;2023-08-01T14:11:57;21.70;99.90
7588;DHT22;3835;48.850;8.938;2023-08-01T14:14:24;21.60;99.90
7588;DHT22;3835;48.850;8.938;2023-08-01T14:16:51;21.70;99.90
7588;DHT22;3835;48.850;8.938;2023-08-01T14:19:18;21.80;99.90
7588;DHT22;3835;48.850;8.938;2023-08-01T14:21:46;21.80;99.90
7588;DHT22;3835;48.850;8.938;2023-08-01T14:24:13;22.20;99.90
7588;DHT22;3835;48.850;8.938;2023-08-01T14:26:39;22.40;99.90
7588;DHT22;3835;48.850;8.938;2023-08-01T14:29:06;22.30;99.90
7588;DHT22;3835;48.850;8.938;2023-08-01T14:31:33;22.00;99.90
7588;DHT22;3835;48.850;8.938;2023-08-01T14:34:00;22.10;99.90
7588;DHT22;3835;48.850;8.938;2023-08-01T14:36:27;22.60;99.90
7588;DHT22;3835;48.850;8.938;2023-08-01T14:38:55;22.90;99.90
7588;DHT22;3835;48.850;8.938;2023-08-01T14:41:22;23.10;99.90
7588;DHT22;3835;48.850;8.938;2023-08-01T14:43:49;23.00;99.90
7588;DHT22;3835;48.850;8.938;2023-08-01T14:46:16;23.20;99.90
7588;DHT22;3835;48.850;8.938;2023-08-01T14:48:43;23.20;99.90
7588;DHT22;3835;48.850;8.938;2023-08-01T14:51:09;23.40;99.90
7588;DHT22;3835;48.850;8.938;2023-08-01T14:53:36;23.30;99.90
7588;DHT22;3835;48.850;8.938;2023-08-01T14:56:04;23.10;99.90
7588;DHT22;3835;48.850;8.938;2023-08-01T14:58:33;22.70;99.90
7588;DHT22;3835;48.850;8.938;2023-08-01T15:01:04;22.70;99.90
7588;DHT22;3835;48.850;8.938;2023-08-01T15:03:31;22.60;99.90
7588;DHT22;3835;48.850;8.938;2023-08-01T15:06:05;22.40;99.90
7588;DHT22;3835;48.850;8.938;2023-08-01T15:08:32;22.50;99.90
7588;DHT22;3835;48.850;8.938;2023-08-01T15:11:04;22.10;99.90
7588;DHT22;3835;48.850;8.938;2023-08-01T15:13:31;22.10;99.90
7588;DHT22;3835;48.850;8.938;2023-08-01T15:15:58;22.30;99.90
7588;DHT22;3835;48.850;8.938;2023-08-01T15:18:25;22.30;99.90
7588;DHT22;3835;48.850;8.938;2023-08-01T15:20:52;22.50;99.90
7588;DHT22;3835;48.850;8.938;2023-08-01T15:23:19;22.50;99.90
7588;DHT22;3835;48.850;8.938;2023-08-01T15:25:52;22.30;99.90
7588;DHT22;3835;48.850;8.938;2023-08-01T15:28:20;22.10;99.90
7588;DHT22;3835;48.850;8.938;2023-08-01T15:30:47;22.10;99.90
7588;DHT22;3835;48.850;8.938;2023-08-01T15:33:14;22.50;99.90
7588;DHT22;3835;48.850;8.938;2023-08-01T15:35:42;22.10;99.90
7588;DHT22;3835;48.850;8.938;2023-08-01T15:38:09;21.80;99.90
7588;DHT22;3835;48.850;8.938;2023-08-01T15:40:36;22.10;99.90
7588;DHT22;3835;48.850;8.938;2023-08-01T15:43:03;22.10;99.90
7588;DHT22;3835;48.850;8.938;2023-08-01T15:45:31;21.80;99.90
7588;DHT22;3835;48.850;8.938;2023-08-01T15:47:58;21.60;99.90
7588;DHT22;3835;48.850;8.938;2023-08-01T15:50:24;21.50;99.90
7588;DHT22;3835;48.850;8.938;2023-08-01T15:52:51;21.20;99.90
7588;DHT22;3835;48.850;8.938;2023-08-01T15:55:18;21.20;99.90
7588;DHT22;3835;48.850;8.938;2023-08-01T15:57:45;21.30;99.90
7588;DHT22;3835;48.850;8.938;2023-08-01T16:00:12;21.80;99.90
7588;DHT22;3835;48.850;8.938;2023-08-01T16:02:40;21.90;99.90
7588;DHT22;3835;48.850;8.938;2023-08-01T16:05:07;21.70;99.90